sensor_id;sensor_type;location;lat;lon;timestamp;pressure;altitude;pressure_sealevel;temperature;humidity
13033;BME280;6583;42.632;23.298;2024-03-22T00:01:46;71113.19;;;-146.40;45.58
13033;BME280;6583;42.632;23.298;2024-03-22T00:04:12;71109.13;;;-146.40;45.79
13033;BME280;6583;42.632;23.298;2024-03-22T00:06:38;71117.22;;;-146.40;45.91
13033;BME280;6583;42.632;23.298;2024-03-22T00:09:05;71125.31;;;-146.40;45.92
13033;BME280;6583;42.632;23.298;2024-03-22T00:11:32;71129.38;;;-146.40;45.85
13033;BME280;6583;42.632;23.298;2024-03-22T00:13:57;71127.34;;;-146.40;46.46
13033;BME280;6583;42.632;23.298;2024-03-22T00:16:25;71133.41;;;-146.40;46.82
13033;BME280;6583;42.632;23.298;2024-03-22T00:18:51;71131.41;;;-146.40;46.49
13033;BME280;6583;42.632;23.298;2024-03-22T00:21:18;71125.31;;;-146.40;46.37
13033;BME280;6583;42.632;23.298;2024-03-22T00:23:45;71131.41;;;-146.40;46.82
13033;BME280;6583;42.632;23.298;2024-03-22T00:26:12;71131.41;;;-146.40;46.76
13033;BME280;6583;42.632;23.298;2024-03-22T00:28:38;71129.38;;;-146.40;47.38
13033;BME280;6583;42.632;23.298;2024-03-22T00:31:04;71169.84;;;-146.40;47.75
13033;BME280;6583;42.632;23.298;2024-03-22T00:33:32;71161.75;;;-146.40;47.98
13033;BME280;6583;42.632;23.298;2024-03-22T00:35:58;71165.78;;;-146.40;48.43
13033;BME280;6583;42.632;23.298;2024-03-22T00:38:24;71177.94;;;-146.40;48.34
13033;BME280;6583;42.632;23.298;2024-03-22T00:40:50;71181.97;;;-146.40;49.01
13033;BME280;6583;42.632;23.298;2024-03-22T00:43:16;71175.91;;;-146.40;49.03
13033;BME280;6583;42.632;23.298;2024-03-22T00:45:43;71175.91;;;-146.40;50.42
13033;BME280;6583;42.632;23.298;2024-03-22T00:48:09;71177.94;;;-146.40;49.72
13033;BME280;6583;42.632;23.298;2024-03-22T00:50:37;71161.75;;;-146.40;49.22
13033;BME280;6583;42.632;23.298;2024-03-22T00:53:02;71159.72;;;-146.40;48.77
13033;BME280;6583;42.632;23.298;2024-03-22T00:55:30;71149.59;;;-146.40;49.06
13033;BME280;6583;42.632;23.298;2024-03-22T00:57:56;71145.56;;;-146.40;49.14
13033;BME280;6583;42.632;23.298;2024-03-22T01:00:23;71131.41;;;-146.40;48.54
13033;BME280;6583;42.632;23.298;2024-03-22T01:02:49;71145.56;;;-146.40;48.64
13033;BME280;6583;42.632;23.298;2024-03-22T01:05:16;71165.78;;;-146.40;49.06
13033;BME280;6583;42.632;23.298;2024-03-22T01:07:43;71159.72;;;-146.40;47.40
13033;BME280;6583;42.632;23.298;2024-03-22T01:10:10;71165.78;;;-146.40;46.37
13033;BME280;6583;42.632;23.298;2024-03-22T01:12:36;71161.75;;;-146.40;47.39
13033;BME280;6583;42.632;23.298;2024-03-22T01:15:05;71153.66;;;-146.40;47.45
13033;BME280;6583;42.632;23.298;2024-03-22T01:17:31;71159.72;;;-146.40;47.97
13033;BME280;6583;42.632;23.298;2024-03-22T01:19:58;71147.59;;;-146.40;47.25
13033;BME280;6583;42.632;23.298;2024-03-22T01:22:24;71155.69;;;-146.40;47.62
13033;BME280;6583;42.632;23.298;2024-03-22T01:24:52;71165.78;;;-146.40;48.02
13033;BME280;6583;42.632;23.298;2024-03-22T01:27:18;71169.84;;;-146.40;48.31
13033;BME280;6583;42.632;23.298;2024-03-22T01:29:46;71173.88;;;-146.40;48.97
13033;BME280;6583;42.632;23.298;2024-03-22T01:32:12;71181.97;;;-146.40;48.32
13033;BME280;6583;42.632;23.298;2024-03-22T01:34:39;71190.06;;;-146.40;47.99
13033;BME280;6583;42.632;23.298;2024-03-22T01:37:05;71181.97;;;-146.40;47.19
13033;BME280;6583;42.632;23.298;2024-03-22T01:39:31;71181.97;;;-146.40;47.35
13033;BME280;6583;42.632;23.298;2024-03-22T01:41:58;71198.16;;;-146.40;47.03
13033;BME280;6583;42.632;23.298;2024-03-22T01:44:27;71222.44;;;-146.40;48.24
13033;BME280;6583;42.632;23.298;2024-03-22T01:46:53;71230.56;;;-146.40;49.09
13033;BME280;6583;42.632;23.298;2024-03-22T01:49:20;71222.44;;;-146.40;49.61
13033;BME280;6583;42.632;23.298;2024-03-22T01:51:47;71200.19;;;-146.40;48.95
13033;BME280;6583;42.632;23.298;2024-03-22T01:54:15;71192.09;;;-146.40;48.20
13033;BME280;6583;42.632;23.298;2024-03-22T01:56:41;71190.06;;;-146.40;48.31
13033;BME280;6583;42.632;23.298;2024-03-22T01:59:10;71198.16;;;-146.40;49.21
13033;BME280;6583;42.632;23.298;2024-03-22T02:01:36;71208.28;;;-146.40;49.45
13033;BME280;6583;42.632;23.298;2024-03-22T02:04:02;71218.41;;;-146.40;49.72
13033;BME280;6583;42.632;23.298;2024-03-22T02:06:28;71214.34;;;-146.40;50.06
13033;BME280;6583;42.632;23.298;2024-03-22T02:08:56;71204.25;;;-146.40;49.87
13033;BME280;6583;42.632;23.298;2024-03-22T02:11:22;71206.25;;;-146.40;50.17
13033;BME280;6583;42.632;23.298;2024-03-22T02:13:49;71210.31;;;-146.40;50.08
13033;BME280;6583;42.632;23.298;2024-03-22T02:16:16;71230.56;;;-146.40;49.90
13033;BME280;6583;42.632;23.298;2024-03-22T02:18:42;71216.38;;;-146.40;50.03
13033;BME280;6583;42.632;23.298;2024-03-22T02:21:09;71224.47;;;-146.40;50.97
13033;BME280;6583;42.632;23.298;2024-03-22T02:23:37;71226.50;;;-146.40;50.45
13033;BME280;6583;42.632;23.298;2024-03-22T02:26:05;71232.56;;;-146.40;50.68
13033;BME280;6583;42.632;23.298;2024-03-22T02:28:31;71234.59;;;-146.40;51.36
13033;BME280;6583;42.632;23.298;2024-03-22T02:30:59;71248.75;;;-146.40;51.19
13033;BME280;6583;42.632;23.298;2024-03-22T02:33:24;71242.69;;;-146.40;52.15
13033;BME280;6583;42.632;23.298;2024-03-22T02:35:51;71258.88;;;-146.40;51.43
13033;BME280;6583;42.632;23.298;2024-03-22T02:38:18;71269.00;;;-146.40;52.87
13033;BME280;6583;42.632;23.298;2024-03-22T02:40:47;71264.94;;;-146.40;52.94
13033;BME280;6583;42.632;23.298;2024-03-22T02:43:13;71258.88;;;-146.40;53.07
13033;BME280;6583;42.632;23.298;2024-03-22T02:45:39;71252.81;;;-146.40;53.15
13033;BME280;6583;42.632;23.298;2024-03-22T02:48:06;71242.69;;;-146.40;53.49
13033;BME280;6583;42.632;23.298;2024-03-22T02:50:33;71248.75;;;-146.40;53.60
13033;BME280;6583;42.632;23.298;2024-03-22T02:52:59;71250.78;;;-146.40;53.56
13033;BME280;6583;42.632;23.298;2024-03-22T02:55:25;71254.84;;;-146.40;53.23
13033;BME280;6583;42.632;23.298;2024-03-22T02:57:52;71258.88;;;-146.40;54.40
13033;BME280;6583;42.632;23.298;2024-03-22T03:00:19;71271.03;;;-146.40;53.61
13033;BME280;6583;42.632;23.298;2024-03-22T03:02:45;71271.03;;;-146.40;54.59
13033;BME280;6583;42.632;23.298;2024-03-22T03:05:12;71275.06;;;-146.40;53.79
13033;BME280;6583;42.632;23.298;2024-03-22T03:07:38;71269.00;;;-146.40;53.98
13033;BME280;6583;42.632;23.298;2024-03-22T03:10:05;71258.88;;;-146.40;54.45
13033;BME280;6583;42.632;23.298;2024-03-22T03:12:31;71246.75;;;-146.40;53.90
13033;BME280;6583;42.632;23.298;2024-03-22T03:14:59;71258.88;;;-146.40;54.54
13033;BME280;6583;42.632;23.298;2024-03-22T03:17:24;71258.88;;;-146.40;54.57
13033;BME280;6583;42.632;23.298;2024-03-22T03:19:51;71264.94;;;-146.40;55.04
13033;BME280;6583;42.632;23.298;2024-03-22T03:22:17;71264.94;;;-146.40;55.03
13033;BME280;6583;42.632;23.298;2024-03-22T03:24:44;71264.94;;;-146.40;54.56
13033;BME280;6583;42.632;23.298;2024-03-22T03:27:09;71262.94;;;-146.40;55.19
13033;BME280;6583;42.632;23.298;2024-03-22T03:29:36;71264.94;;;-146.40;54.47
13033;BME280;6583;42.632;23.298;2024-03-22T03:32:04;71279.13;;;-146.40;55.27
13033;BME280;6583;42.632;23.298;2024-03-22T03:34:30;71289.25;;;-146.40;54.58
13033;BME280;6583;42.632;23.298;2024-03-22T03:36:56;71311.50;;;-146.40;54.62
13033;BME280;6583;42.632;23.298;2024-03-22T03:39:26;71311.50;;;-146.40;55.70
13033;BME280;6583;42.632;23.298;2024-03-22T03:41:52;71311.50;;;-146.40;55.40
13033;BME280;6583;42.632;23.298;2024-03-22T03:44:18;71303.41;;;-146.40;55.83
13033;BME280;6583;42.632;23.298;2024-03-22T03:46:44;71311.50;;;-146.40;54.93
13033;BME280;6583;42.632;23.298;2024-03-22T03:49:12;71341.84;;;-146.40;55.57
13033;BME280;6583;42.632;23.298;2024-03-22T03:51:37;71331.72;;;-146.40;55.75
13033;BME280;6583;42.632;23.298;2024-03-22T03:54:04;71327.69;;;-146.40;55.21
13033;BME280;6583;42.632;23.298;2024-03-22T03:56:30;71333.75;;;-146.40;55.17
13033;BME280;6583;42.632;23.298;2024-03-22T03:58:57;71319.59;;;-146.40;54.32
13033;BME280;6583;42.632;23.298;2024-03-22T04:01:23;71307.44;;;-146.40;54.00
13033;BME280;6583;42.632;23.298;2024-03-22T04:03:49;71311.50;;;-146.40;53.90
13033;BME280;6583;42.632;23.298;2024-03-22T04:06:16;71309.47;;;-146.40;54.38
13033;BME280;6583;42.632;23.298;2024-03-22T04:08:43;71325.66;;;-146.40;54.47
13033;BME280;6583;42.632;23.298;2024-03-22T04:11:09;71327.69;;;-146.40;54.50
13033;BME280;6583;42.632;23.298;2024-03-22T04:13:36;71351.97;;;-146.40;55.37
13033;BME280;6583;42.632;23.298;2024-03-22T04:16:02;71372.22;;;-146.40;56.00
13033;BME280;6583;42.632;23.298;2024-03-22T04:18:30;71386.38;;;-146.40;56.52
13033;BME280;6583;42.632;23.298;2024-03-22T04:20:57;71374.22;;;-146.40;56.22
13033;BME280;6583;42.632;23.298;2024-03-22T04:23:26;71368.16;;;-146.40;55.17
13033;BME280;6583;42.632;23.298;2024-03-22T04:25:53;71370.19;;;-146.40;56.20
13033;BME280;6583;42.632;23.298;2024-03-22T04:28:19;71376.25;;;-146.40;56.70
13033;BME280;6583;42.632;23.298;2024-03-22T04:30:56;71392.44;;;-146.40;57.06
13033;BME280;6583;42.632;23.298;2024-03-22T04:33:22;71370.19;;;-146.40;56.95
13033;BME280;6583;42.632;23.298;2024-03-22T04:35:48;71366.13;;;-146.40;56.53
13033;BME280;6583;42.632;23.298;2024-03-22T04:38:15;71360.06;;;-146.40;57.51
13033;BME280;6583;42.632;23.298;2024-03-22T04:40:43;71358.03;;;-146.40;57.71
13033;BME280;6583;42.632;23.298;2024-03-22T04:43:09;71368.16;;;-146.40;57.83
13033;BME280;6583;42.632;23.298;2024-03-22T04:45:36;71378.28;;;-146.40;58.54
13033;BME280;6583;42.632;23.298;2024-03-22T04:48:04;71402.56;;;-146.40;58.90
13033;BME280;6583;42.632;23.298;2024-03-22T04:50:30;71404.59;;;-146.40;59.34
13033;BME280;6583;42.632;23.298;2024-03-22T04:52:56;71396.50;;;-146.40;60.47
13033;BME280;6583;42.632;23.298;2024-03-22T04:55:22;71394.47;;;-146.40;60.87
13033;BME280;6583;42.632;23.298;2024-03-22T04:57:51;71378.28;;;-146.40;60.61
13033;BME280;6583;42.632;23.298;2024-03-22T05:00:18;71366.13;;;-146.40;59.71
13033;BME280;6583;42.632;23.298;2024-03-22T05:02:45;71347.91;;;-146.40;59.71
13033;BME280;6583;42.632;23.298;2024-03-22T05:05:11;71339.81;;;-146.40;59.79
13033;BME280;6583;42.632;23.298;2024-03-22T05:07:38;71319.59;;;-146.40;59.00
13033;BME280;6583;42.632;23.298;2024-03-22T05:10:04;71303.41;;;-146.40;59.13
13033;BME280;6583;42.632;23.298;2024-03-22T05:12:31;71291.25;;;-146.40;58.65
13033;BME280;6583;42.632;23.298;2024-03-22T05:14:58;71275.06;;;-146.40;56.36
13033;BME280;6583;42.632;23.298;2024-03-22T05:17:25;71258.88;;;-146.40;56.56
13033;BME280;6583;42.632;23.298;2024-03-22T05:19:50;71252.81;;;-146.40;57.22
13033;BME280;6583;42.632;23.298;2024-03-22T05:22:17;71250.78;;;-146.40;57.69
13033;BME280;6583;42.632;23.298;2024-03-22T05:24:45;71240.66;;;-146.40;56.39
13033;BME280;6583;42.632;23.298;2024-03-22T05:27:12;71234.59;;;-146.40;57.01
13033;BME280;6583;42.632;23.298;2024-03-22T05:29:38;71226.50;;;-146.40;56.82
13033;BME280;6583;42.632;23.298;2024-03-22T05:32:06;71210.31;;;-146.40;55.97
13033;BME280;6583;42.632;23.298;2024-03-22T05:34:32;71190.06;;;-146.40;54.42
13033;BME280;6583;42.632;23.298;2024-03-22T05:36:59;71190.06;;;-146.40;51.36
13033;BME280;6583;42.632;23.298;2024-03-22T05:39:24;71186.03;;;-146.40;50.35
13033;BME280;6583;42.632;23.298;2024-03-22T05:41:51;71181.97;;;-146.40;49.80
13033;BME280;6583;42.632;23.298;2024-03-22T05:44:17;71171.88;;;-146.40;46.69
13033;BME280;6583;42.632;23.298;2024-03-22T05:46:43;71159.72;;;-146.40;45.42
13033;BME280;6583;42.632;23.298;2024-03-22T05:49:10;71153.66;;;-146.40;45.78
13033;BME280;6583;42.632;23.298;2024-03-22T05:51:37;71149.59;;;-146.40;46.68
13033;BME280;6583;42.632;23.298;2024-03-22T05:54:03;71135.44;;;-146.40;46.15
13033;BME280;6583;42.632;23.298;2024-03-22T05:56:30;71129.38;;;-146.40;45.55
13033;BME280;6583;42.632;23.298;2024-03-22T05:58:57;71127.34;;;-146.40;44.90
13033;BME280;6583;42.632;23.298;2024-03-22T06:01:22;71119.25;;;-146.40;45.14
13033;BME280;6583;42.632;23.298;2024-03-22T06:03:49;71109.13;;;-146.40;45.95
13033;BME280;6583;42.632;23.298;2024-03-22T06:06:16;71105.09;;;-146.40;45.98
13033;BME280;6583;42.632;23.298;2024-03-22T06:08:43;71105.09;;;-146.40;44.55
13033;BME280;6583;42.632;23.298;2024-03-22T06:11:10;71097.00;;;-146.40;44.90
13033;BME280;6583;42.632;23.298;2024-03-22T06:13:37;71105.09;;;-146.40;44.74
13033;BME280;6583;42.632;23.298;2024-03-22T06:16:03;71094.97;;;-146.40;44.77
13033;BME280;6583;42.632;23.298;2024-03-22T06:18:30;71080.81;;;-146.40;45.85
13033;BME280;6583;42.632;23.298;2024-03-22T06:20:56;71080.81;;;-146.40;45.58
13033;BME280;6583;42.632;23.298;2024-03-22T06:23:24;71080.81;;;-146.40;44.60
13033;BME280;6583;42.632;23.298;2024-03-22T06:25:52;71052.47;;;-146.40;44.82
13033;BME280;6583;42.632;23.298;2024-03-22T06:28:19;71042.34;;;-146.40;44.54
13033;BME280;6583;42.632;23.298;2024-03-22T06:30:45;71036.28;;;-146.40;44.69
13033;BME280;6583;42.632;23.298;2024-03-22T06:33:11;71040.34;;;-146.40;42.14
13033;BME280;6583;42.632;23.298;2024-03-22T06:35:37;71028.19;;;-146.40;42.61
13033;BME280;6583;42.632;23.298;2024-03-22T06:38:04;71007.97;;;-146.40;42.46
13033;BME280;6583;42.632;23.298;2024-03-22T06:40:31;70991.78;;;-146.40;41.44
13033;BME280;6583;42.632;23.298;2024-03-22T06:42:58;70999.88;;;-146.40;41.03
13033;BME280;6583;42.632;23.298;2024-03-22T06:45:24;70987.72;;;-146.40;41.71
13033;BME280;6583;42.632;23.298;2024-03-22T06:47:50;70973.56;;;-146.40;41.67
13033;BME280;6583;42.632;23.298;2024-03-22T06:50:16;70963.44;;;-146.40;41.92
13033;BME280;6583;42.632;23.298;2024-03-22T06:52:44;70971.53;;;-146.40;41.08
13033;BME280;6583;42.632;23.298;2024-03-22T06:55:10;70975.59;;;-146.40;41.29
13033;BME280;6583;42.632;23.298;2024-03-22T06:57:38;70987.72;;;-146.40;40.36
13033;BME280;6583;42.632;23.298;2024-03-22T07:00:04;70975.59;;;-146.40;40.96
13033;BME280;6583;42.632;23.298;2024-03-22T07:02:35;70987.72;;;-146.40;41.04
13033;BME280;6583;42.632;23.298;2024-03-22T07:05:01;70989.75;;;-146.40;41.51
13033;BME280;6583;42.632;23.298;2024-03-22T07:07:29;70979.63;;;-146.40;41.44
13033;BME280;6583;42.632;23.298;2024-03-22T07:09:56;70983.69;;;-146.40;40.61
13033;BME280;6583;42.632;23.298;2024-03-22T07:12:23;70967.50;;;-146.40;41.23
13033;BME280;6583;42.632;23.298;2024-03-22T07:14:50;70967.50;;;-146.40;40.19
13033;BME280;6583;42.632;23.298;2024-03-22T07:17:16;70963.44;;;-146.40;40.23
13033;BME280;6583;42.632;23.298;2024-03-22T07:19:42;70947.25;;;-146.40;41.39
13033;BME280;6583;42.632;23.298;2024-03-22T07:22:09;70957.38;;;-146.40;39.80
13033;BME280;6583;42.632;23.298;2024-03-22T07:24:34;70951.31;;;-146.40;40.53
13033;BME280;6583;42.632;23.298;2024-03-22T07:27:01;70939.16;;;-146.40;40.03
13033;BME280;6583;42.632;23.298;2024-03-22T07:29:30;70918.94;;;-146.40;41.30
13033;BME280;6583;42.632;23.298;2024-03-22T07:31:58;70904.75;;;-146.40;40.07
13033;BME280;6583;42.632;23.298;2024-03-22T07:34:23;70898.69;;;-146.40;39.97
13033;BME280;6583;42.632;23.298;2024-03-22T07:36:50;70878.47;;;-146.40;40.95
13033;BME280;6583;42.632;23.298;2024-03-22T07:39:16;70884.53;;;-146.40;39.11
13033;BME280;6583;42.632;23.298;2024-03-22T07:41:42;70884.53;;;-146.40;39.70
13033;BME280;6583;42.632;23.298;2024-03-22T07:44:08;70876.44;;;-146.40;39.44
13033;BME280;6583;42.632;23.298;2024-03-22T07:46:35;70862.28;;;-146.40;39.97
13033;BME280;6583;42.632;23.298;2024-03-22T07:49:02;70842.03;;;-146.40;40.15
13033;BME280;6583;42.632;23.298;2024-03-22T07:51:29;70838.00;;;-146.40;39.41
13033;BME280;6583;42.632;23.298;2024-03-22T07:53:55;70840.00;;;-146.40;38.59
13033;BME280;6583;42.632;23.298;2024-03-22T07:56:21;70831.91;;;-146.40;39.97
13033;BME280;6583;42.632;23.298;2024-03-22T07:58:47;70850.13;;;-146.40;40.08
13033;BME280;6583;42.632;23.298;2024-03-22T08:01:14;70856.19;;;-146.40;40.21
13033;BME280;6583;42.632;23.298;2024-03-22T08:03:41;70874.41;;;-146.40;40.47
13033;BME280;6583;42.632;23.298;2024-03-22T08:06:09;70874.41;;;-146.40;40.36
13033;BME280;6583;42.632;23.298;2024-03-22T08:08:34;70870.38;;;-146.40;39.76
13033;BME280;6583;42.632;23.298;2024-03-22T08:11:01;70880.47;;;-146.40;40.25
13033;BME280;6583;42.632;23.298;2024-03-22T08:13:27;70854.19;;;-146.40;40.32
13033;BME280;6583;42.632;23.298;2024-03-22T08:15:53;70833.94;;;-146.40;41.03
13033;BME280;6583;42.632;23.298;2024-03-22T08:18:19;70823.81;;;-146.40;40.33
13033;BME280;6583;42.632;23.298;2024-03-22T08:20:46;70829.91;;;-146.40;39.43
13033;BME280;6583;42.632;23.298;2024-03-22T08:23:13;70823.81;;;-146.40;40.13
13033;BME280;6583;42.632;23.298;2024-03-22T08:25:39;70813.72;;;-146.40;39.82
13033;BME280;6583;42.632;23.298;2024-03-22T08:28:05;70791.44;;;-146.40;39.24
13033;BME280;6583;42.632;23.298;2024-03-22T08:30:31;70785.38;;;-146.40;39.16
13033;BME280;6583;42.632;23.298;2024-03-22T08:32:58;70777.28;;;-146.40;38.81
13033;BME280;6583;42.632;23.298;2024-03-22T08:35:24;70789.44;;;-146.40;39.24
13033;BME280;6583;42.632;23.298;2024-03-22T08:37:50;70791.44;;;-146.40;39.06
13033;BME280;6583;42.632;23.298;2024-03-22T08:40:17;70793.47;;;-146.40;37.67
13033;BME280;6583;42.632;23.298;2024-03-22T08:42:44;70793.47;;;-146.40;38.65
13033;BME280;6583;42.632;23.298;2024-03-22T08:45:10;70777.28;;;-146.40;38.81
13033;BME280;6583;42.632;23.298;2024-03-22T08:47:36;70773.25;;;-146.40;38.02
13033;BME280;6583;42.632;23.298;2024-03-22T08:50:03;70773.25;;;-146.40;38.41
13033;BME280;6583;42.632;23.298;2024-03-22T08:52:30;70777.28;;;-146.40;37.81
13033;BME280;6583;42.632;23.298;2024-03-22T08:54:57;70767.16;;;-146.40;37.67
13033;BME280;6583;42.632;23.298;2024-03-22T08:57:25;70791.44;;;-146.40;36.58
13033;BME280;6583;42.632;23.298;2024-03-22T08:59:51;70789.44;;;-146.40;37.25
13033;BME280;6583;42.632;23.298;2024-03-22T09:02:17;70785.38;;;-146.40;37.44
13033;BME280;6583;42.632;23.298;2024-03-22T09:04:43;70781.34;;;-146.40;37.28
13033;BME280;6583;42.632;23.298;2024-03-22T09:07:10;70773.25;;;-146.40;36.22
13033;BME280;6583;42.632;23.298;2024-03-22T09:09:35;70753.00;;;-146.40;36.79
13033;BME280;6583;42.632;23.298;2024-03-22T09:12:02;70738.84;;;-146.40;37.57
13033;BME280;6583;42.632;23.298;2024-03-22T09:14:29;70740.88;;;-146.40;36.75
13033;BME280;6583;42.632;23.298;2024-03-22T09:16:56;70726.69;;;-146.40;36.76
13033;BME280;6583;42.632;23.298;2024-03-22T09:19:21;70716.59;;;-146.40;36.48
13033;BME280;6583;42.632;23.298;2024-03-22T09:21:48;70708.50;;;-146.40;36.48
13033;BME280;6583;42.632;23.298;2024-03-22T09:24:14;70706.47;;;-146.40;35.48
13033;BME280;6583;42.632;23.298;2024-03-22T09:26:40;70708.50;;;-146.40;36.79
13033;BME280;6583;42.632;23.298;2024-03-22T09:29:06;70692.31;;;-146.40;36.17
13033;BME280;6583;42.632;23.298;2024-03-22T09:31:34;70670.06;;;-146.40;36.31
13033;BME280;6583;42.632;23.298;2024-03-22T09:34:00;70659.94;;;-146.40;35.05
13033;BME280;6583;42.632;23.298;2024-03-22T09:36:26;70653.88;;;-146.40;34.63
13033;BME280;6583;42.632;23.298;2024-03-22T09:38:52;70641.72;;;-146.40;33.74
13033;BME280;6583;42.632;23.298;2024-03-22T09:41:24;70623.50;;;-146.40;35.13
13033;BME280;6583;42.632;23.298;2024-03-22T09:43:51;70607.31;;;-146.40;34.96
13033;BME280;6583;42.632;23.298;2024-03-22T09:46:18;70609.34;;;-146.40;34.24
13033;BME280;6583;42.632;23.298;2024-03-22T09:48:47;70605.31;;;-146.40;35.49
13033;BME280;6583;42.632;23.298;2024-03-22T09:51:15;70601.25;;;-146.40;34.36
13033;BME280;6583;42.632;23.298;2024-03-22T09:53:43;70593.16;;;-146.40;34.44
13033;BME280;6583;42.632;23.298;2024-03-22T09:56:11;70587.09;;;-146.40;34.66
13033;BME280;6583;42.632;23.298;2024-03-22T09:58:39;70611.38;;;-146.40;33.83
13033;BME280;6583;42.632;23.298;2024-03-22T10:01:07;70607.31;;;-146.40;33.98
13033;BME280;6583;42.632;23.298;2024-03-22T10:03:33;70621.50;;;-146.40;34.39
13033;BME280;6583;42.632;23.298;2024-03-22T10:06:01;70621.50;;;-146.40;34.69
13033;BME280;6583;42.632;23.298;2024-03-22T10:08:27;70621.50;;;-146.40;34.18
13033;BME280;6583;42.632;23.298;2024-03-22T10:10:53;70619.47;;;-146.40;34.49
13033;BME280;6583;42.632;23.298;2024-03-22T10:13:19;70609.34;;;-146.40;34.76
13033;BME280;6583;42.632;23.298;2024-03-22T10:15:46;70599.22;;;-146.40;34.39
13033;BME280;6583;42.632;23.298;2024-03-22T10:18:11;70609.34;;;-146.40;34.22
13033;BME280;6583;42.632;23.298;2024-03-22T10:20:40;70631.59;;;-146.40;34.89
13033;BME280;6583;42.632;23.298;2024-03-22T10:23:08;70617.44;;;-146.40;35.71
13033;BME280;6583;42.632;23.298;2024-03-22T10:25:34;70603.28;;;-146.40;34.08
13033;BME280;6583;42.632;23.298;2024-03-22T10:28:01;70615.41;;;-146.40;34.29
13033;BME280;6583;42.632;23.298;2024-03-22T10:30:27;70603.28;;;-146.40;34.00
13033;BME280;6583;42.632;23.298;2024-03-22T10:32:53;70587.09;;;-146.40;33.94
13033;BME280;6583;42.632;23.298;2024-03-22T10:35:20;70579.00;;;-146.40;34.78
13033;BME280;6583;42.632;23.298;2024-03-22T10:37:47;70570.91;;;-146.40;34.79
13033;BME280;6583;42.632;23.298;2024-03-22T10:40:16;70558.78;;;-146.40;35.36
13033;BME280;6583;42.632;23.298;2024-03-22T10:42:42;70548.66;;;-146.40;34.25
13033;BME280;6583;42.632;23.298;2024-03-22T10:45:10;70536.50;;;-146.40;34.60
13033;BME280;6583;42.632;23.298;2024-03-22T10:47:37;70536.50;;;-146.40;34.09
13033;BME280;6583;42.632;23.298;2024-03-22T10:50:06;70536.50;;;-146.40;33.88
13033;BME280;6583;42.632;23.298;2024-03-22T10:52:39;70534.50;;;-146.40;33.82
13033;BME280;6583;42.632;23.298;2024-03-22T10:55:10;70536.50;;;-146.40;33.53
13033;BME280;6583;42.632;23.298;2024-03-22T10:57:38;70520.34;;;-146.40;33.80
13033;BME280;6583;42.632;23.298;2024-03-22T11:00:09;70514.25;;;-146.40;34.06
13033;BME280;6583;42.632;23.298;2024-03-22T11:02:35;70516.28;;;-146.40;34.21
13033;BME280;6583;42.632;23.298;2024-03-22T11:05:02;70508.19;;;-146.40;33.61
13033;BME280;6583;42.632;23.298;2024-03-22T11:07:29;70496.06;;;-146.40;34.72
13033;BME280;6583;42.632;23.298;2024-03-22T11:09:56;70479.88;;;-146.40;33.88
13033;BME280;6583;42.632;23.298;2024-03-22T11:12:24;70479.88;;;-146.40;33.36
13033;BME280;6583;42.632;23.298;2024-03-22T11:14:53;70485.94;;;-146.40;33.89
13033;BME280;6583;42.632;23.298;2024-03-22T11:17:19;70489.97;;;-146.40;34.22
13033;BME280;6583;42.632;23.298;2024-03-22T11:19:48;70494.03;;;-146.40;32.99
13033;BME280;6583;42.632;23.298;2024-03-22T11:22:13;70500.09;;;-146.40;33.61
13033;BME280;6583;42.632;23.298;2024-03-22T11:24:41;70504.16;;;-146.40;33.24
13033;BME280;6583;42.632;23.298;2024-03-22T11:27:06;70522.34;;;-146.40;32.86
13033;BME280;6583;42.632;23.298;2024-03-22T11:29:35;70514.25;;;-146.40;33.16
13033;BME280;6583;42.632;23.298;2024-03-22T11:32:02;70550.69;;;-146.40;34.30
13033;BME280;6583;42.632;23.298;2024-03-22T11:34:29;70526.41;;;-146.40;35.20
13033;BME280;6583;42.632;23.298;2024-03-22T11:36:55;70516.28;;;-146.40;34.75
13033;BME280;6583;42.632;23.298;2024-03-22T11:39:22;70494.03;;;-146.40;34.27
13033;BME280;6583;42.632;23.298;2024-03-22T11:41:48;70481.88;;;-146.40;34.22
13033;BME280;6583;42.632;23.298;2024-03-22T11:44:16;70494.03;;;-146.40;33.18
13033;BME280;6583;42.632;23.298;2024-03-22T11:46:43;70483.91;;;-146.40;33.52
13033;BME280;6583;42.632;23.298;2024-03-22T11:49:12;70485.94;;;-146.40;33.10
13033;BME280;6583;42.632;23.298;2024-03-22T11:51:38;70502.13;;;-146.40;32.68
13033;BME280;6583;42.632;23.298;2024-03-22T11:54:05;70496.06;;;-146.40;32.13
13033;BME280;6583;42.632;23.298;2024-03-22T11:56:34;70496.06;;;-146.40;32.70
13033;BME280;6583;42.632;23.298;2024-03-22T11:59:02;70479.88;;;-146.40;33.05
13033;BME280;6583;42.632;23.298;2024-03-22T12:01:29;70473.78;;;-146.40;33.06
13033;BME280;6583;42.632;23.298;2024-03-22T12:03:55;70465.69;;;-146.40;32.86
13033;BME280;6583;42.632;23.298;2024-03-22T12:06:22;70437.38;;;-146.40;33.61
13033;BME280;6583;42.632;23.298;2024-03-22T12:08:49;70429.28;;;-146.40;33.25
13033;BME280;6583;42.632;23.298;2024-03-22T12:11:15;70429.28;;;-146.40;32.44
13033;BME280;6583;42.632;23.298;2024-03-22T12:13:41;70425.25;;;-146.40;32.41
13033;BME280;6583;42.632;23.298;2024-03-22T12:16:07;70429.28;;;-146.40;33.28
13033;BME280;6583;42.632;23.298;2024-03-22T12:18:34;70425.25;;;-146.40;32.44
13033;BME280;6583;42.632;23.298;2024-03-22T12:20:59;70413.09;;;-146.40;32.87
13033;BME280;6583;42.632;23.298;2024-03-22T12:23:27;70455.59;;;-146.40;33.07
13033;BME280;6583;42.632;23.298;2024-03-22T12:25:53;70453.56;;;-146.40;32.97
13033;BME280;6583;42.632;23.298;2024-03-22T12:28:21;70455.59;;;-146.40;33.22
13033;BME280;6583;42.632;23.298;2024-03-22T12:30:47;70445.47;;;-146.40;33.49
13033;BME280;6583;42.632;23.298;2024-03-22T12:33:13;70433.34;;;-146.40;32.33
13033;BME280;6583;42.632;23.298;2024-03-22T12:35:39;70425.25;;;-146.40;32.53
13033;BME280;6583;42.632;23.298;2024-03-22T12:38:06;70413.09;;;-146.40;33.29